CST,Max TemperatureF,Mean TemperatureF,Min TemperatureF,Max Dew PointF,MeanDew PointF,Min DewpointF,Max Humidity, Mean Humidity, Min Humidity, Max Sea Level PressureIn, Mean Sea Level PressureIn, Min Sea Level PressureIn, Max VisibilityMiles, Mean VisibilityMiles, Min VisibilityMiles, Max Wind SpeedMPH, Mean Wind SpeedMPH, Max Gust SpeedMPH,PrecipitationIn, CloudCover, Events, WindDirDegrees
2012-12-1,71,56,41,51,44,37,89,67,44,30.32,30.27,30.22,10,7,1,13,6,20,0.00,4,,124
2012-12-2,74,63,51,50,47,43,77,59,41,30.32,30.26,30.21,10,10,10,18,7,23,0.00,3,,147
2012-12-3,74,62,49,53,49,45,86,65,44,30.28,30.22,30.18,10,10,10,15,7,21,0.00,2,,139
2012-12-4,69,63,57,60,56,52,93,80,66,30.25,30.19,30.15,10,9,0,16,8,22,0.03,7,Rain,193
2012-12-5,62,57,51,56,51,42,93,73,53,30.26,30.18,30.11,10,8,2,17,5,21,T,8,Rain,51
2012-12-6,70,60,50,54,49,43,89,72,55,30.10,30.06,30.01,10,10,10,14,8,18,0.00,5,,129
2012-12-7,65,59,52,54,51,43,86,76,66,30.04,29.99,29.93,10,10,9,14,7,20,0.00,7,,143
2012-12-8,69,63,57,59,56,53,93,78,63,30.00,29.97,29.93,10,7,3,14,6,17,T,6,,174
2012-12-9,72,66,60,59,57,55,90,74,57,30.01,29.95,29.81,10,8,4,18,10,24,T,6,Rain,165
2012-12-10,69,54,38,61,49,31,93,83,73,30.00,29.81,29.71,10,6,2,31,10,39,1.28,8,Rain-Thunderstorm,295
2012-12-11,43,38,33,31,28,26,82,68,53,30.24,30.13,30.00,10,10,10,15,8,18,0.00,6,,4
2012-12-12,52,43,33,27,25,21,75,54,32,30.33,30.28,30.24,10,10,10,16,8,20,0.00,4,,15
2012-12-13,58,43,27,33,28,23,89,61,33,30.40,30.34,30.29,10,10,10,7,2,9,0.00,0,,38
2012-12-14,60,45,30,39,34,27,92,66,39,30.37,30.27,30.14,10,10,10,12,3,12,0.00,5,,116
2012-12-15,64,55,46,54,48,38,78,67,56,30.17,30.04,29.94,10,10,9,21,10,25,0.04,8,Rain,169
2012-12-16,63,60,56,59,56,52,93,86,78,29.94,29.88,29.76,10,7,1,25,10,32,2.46,8,Rain-Thunderstorm,168
2012-12-17,63,56,48,56,53,41,93,80,67,29.81,29.74,29.65,10,9,2,16,9,24,0.01,7,,213
2012-12-18,59,48,37,41,37,35,92,68,43,30.01,29.95,29.83,10,7,0,17,4,22,0.00,2,,175
2012-12-19,68,54,40,44,40,35,85,61,37,30.08,30.00,29.91,10,10,10,16,7,24,0.00,4,,139
2012-12-20,60,49,37,55,42,20,86,65,44,30.02,29.78,29.64,10,8,1,33,19,44,0.67,8,Rain,220
2012-12-21,46,38,30,22,18,15,56,44,31,30.30,30.18,30.03,10,10,10,26,14,35,0.00,0,,297
2012-12-22,50,37,24,24,19,15,74,50,26,30.39,30.29,30.19,10,10,10,6,3,12,0.00,0,,105
2012-12-23,55,43,31,47,36,22,86,64,41,30.18,30.06,29.93,10,10,6,17,7,22,0.19,7,Rain,175
2012-12-24,65,55,44,57,50,43,93,77,60,29.96,29.88,29.82,10,9,2,17,8,23,0.10,6,Fog-Rain,243
2012-12-25,54,49,43,52,47,41,93,87,80,29.99,29.78,29.46,10,6,1,38,11,46,1.50,8,Rain-Thunderstorm,85
2012-12-26,54,44,34,52,35,29,89,82,75,30.13,29.74,29.40,10,9,4,29,17,40,0.06,8,Rain-Snow,266
2012-12-27,38,34,30,29,28,26,92,81,70,30.20,30.14,30.10,10,10,8,14,5,24,0.00,7,,12
2012-12-28,44,37,30,43,36,28,100,90,79,30.11,29.92,29.75,10,8,2,23,8,26,0.35,8,Rain,135
2012-12-29,43,38,32,43,32,25,100,85,69,30.39,30.09,29.82,10,9,3,20,13,26,0.06,8,Rain-Snow,293
2012-12-30,44,36,27,28,24,21,85,65,45,30.54,30.45,30.39,10,10,10,13,4,16,0.00,4,,6
2012-12-31,50,41,31,42,32,27,92,71,49,30.39,30.24,30.05,10,10,10,14,5,17,T,7,Rain,147